sensor_id;sensor_type;location;lat;lon;timestamp;pressure;altitude;pressure_sealevel;temperature;humidity
21644;BME280;10983;51.982;9.226;2024-01-16T00:01:51;99161.38;;;1.80;100.00
21644;BME280;10983;51.982;9.226;2024-01-16T00:04:19;99170.63;;;1.76;100.00
21644;BME280;10983;51.982;9.226;2024-01-16T00:06:46;99167.81;;;1.78;100.00
21644;BME280;10983;51.982;9.226;2024-01-16T00:09:15;99179.69;;;1.74;100.00
21644;BME280;10983;51.982;9.226;2024-01-16T00:11:43;99169.81;;;1.69;100.00
21644;BME280;10983;51.982;9.226;2024-01-16T00:14:11;99179.63;;;1.61;100.00
21644;BME280;10983;51.982;9.226;2024-01-16T00:16:41;99177.97;;;1.47;100.00
21644;BME280;10983;51.982;9.226;2024-01-16T00:19:09;99180.59;;;1.47;100.00
21644;BME280;10983;51.982;9.226;2024-01-16T00:21:38;99183.81;;;1.49;100.00
21644;BME280;10983;51.982;9.226;2024-01-16T00:24:06;99200.75;;;1.47;100.00
21644;BME280;10983;51.982;9.226;2024-01-16T00:26:35;99197.09;;;1.48;100.00
21644;BME280;10983;51.982;9.226;2024-01-16T00:29:03;99206.97;;;1.46;100.00
21644;BME280;10983;51.982;9.226;2024-01-16T00:31:30;99205.94;;;1.40;100.00
21644;BME280;10983;51.982;9.226;2024-01-16T00:33:58;99214.19;;;1.44;100.00
21644;BME280;10983;51.982;9.226;2024-01-16T00:36:25;99218.84;;;1.42;100.00
21644;BME280;10983;51.982;9.226;2024-01-16T00:38:53;99218.03;;;1.48;100.00
21644;BME280;10983;51.982;9.226;2024-01-16T00:41:20;99222.56;;;1.60;100.00
21644;BME280;10983;51.982;9.226;2024-01-16T00:43:49;99215.50;;;1.61;100.00
21644;BME280;10983;51.982;9.226;2024-01-16T00:46:16;99214.47;;;1.55;100.00
21644;BME280;10983;51.982;9.226;2024-01-16T00:48:44;99216.47;;;1.53;100.00
21644;BME280;10983;51.982;9.226;2024-01-16T00:51:11;99216.81;;;1.44;100.00
21644;BME280;10983;51.982;9.226;2024-01-16T00:53:40;99233.34;;;1.44;100.00
21644;BME280;10983;51.982;9.226;2024-01-16T00:56:08;99224.16;;;1.55;100.00
21644;BME280;10983;51.982;9.226;2024-01-16T00:58:35;99225.16;;;1.54;100.00
21644;BME280;10983;51.982;9.226;2024-01-16T01:01:05;99241.88;;;1.59;100.00
21644;BME280;10983;51.982;9.226;2024-01-16T01:03:33;99241.53;;;1.68;100.00
21644;BME280;10983;51.982;9.226;2024-01-16T01:06:00;99241.53;;;1.68;100.00
21644;BME280;10983;51.982;9.226;2024-01-16T01:08:28;99241.09;;;1.65;100.00
21644;BME280;10983;51.982;9.226;2024-01-16T01:10:56;99234.66;;;1.67;100.00
21644;BME280;10983;51.982;9.226;2024-01-16T01:13:24;99254.03;;;1.67;100.00
21644;BME280;10983;51.982;9.226;2024-01-16T01:15:52;99242.13;;;1.70;100.00
21644;BME280;10983;51.982;9.226;2024-01-16T01:18:21;99246.78;;;1.68;100.00
21644;BME280;10983;51.982;9.226;2024-01-16T01:20:49;99257.47;;;1.73;100.00
21644;BME280;10983;51.982;9.226;2024-01-16T01:23:16;99255.06;;;1.72;100.00
21644;BME280;10983;51.982;9.226;2024-01-16T01:25:45;99264.50;;;1.73;100.00
21644;BME280;10983;51.982;9.226;2024-01-16T01:28:14;99267.34;;;1.71;100.00
21644;BME280;10983;51.982;9.226;2024-01-16T01:30:42;99264.72;;;1.71;100.00
21644;BME280;10983;51.982;9.226;2024-01-16T01:33:09;99278.00;;;1.70;100.00
21644;BME280;10983;51.982;9.226;2024-01-16T01:35:40;99273.16;;;1.67;100.00
21644;BME280;10983;51.982;9.226;2024-01-16T01:38:08;99279.00;;;1.69;100.00
21644;BME280;10983;51.982;9.226;2024-01-16T01:40:35;99281.41;;;1.64;100.00
21644;BME280;10983;51.982;9.226;2024-01-16T01:43:16;99272.53;;;1.65;100.00
21644;BME280;10983;51.982;9.226;2024-01-16T01:45:46;99281.78;;;1.61;100.00
21644;BME280;10983;51.982;9.226;2024-01-16T01:48:15;99296.94;;;1.66;100.00
21644;BME280;10983;51.982;9.226;2024-01-16T01:50:44;99297.13;;;1.64;100.00
21644;BME280;10983;51.982;9.226;2024-01-16T01:53:11;99293.50;;;1.65;100.00
21644;BME280;10983;51.982;9.226;2024-01-16T01:55:40;99308.00;;;1.67;100.00
21644;BME280;10983;51.982;9.226;2024-01-16T01:58:08;99314.63;;;1.64;100.00
21644;BME280;10983;51.982;9.226;2024-01-16T02:00:35;99319.09;;;1.63;100.00
21644;BME280;10983;51.982;9.226;2024-01-16T02:03:03;99309.56;;;1.56;100.00
21644;BME280;10983;51.982;9.226;2024-01-16T02:05:31;99310.75;;;1.53;100.00
21644;BME280;10983;51.982;9.226;2024-01-16T02:08:01;99328.28;;;1.53;100.00
21644;BME280;10983;51.982;9.226;2024-01-16T02:10:29;99330.94;;;1.59;100.00
21644;BME280;10983;51.982;9.226;2024-01-16T02:12:57;99340.63;;;1.59;100.00
21644;BME280;10983;51.982;9.226;2024-01-16T02:15:24;99332.13;;;1.57;100.00
21644;BME280;10983;51.982;9.226;2024-01-16T02:17:52;99340.78;;;1.51;100.00
21644;BME280;10983;51.982;9.226;2024-01-16T02:20:20;99342.16;;;1.53;100.00
21644;BME280;10983;51.982;9.226;2024-01-16T02:22:49;99333.31;;;1.54;100.00
21644;BME280;10983;51.982;9.226;2024-01-16T02:25:22;99342.16;;;1.53;100.00
21644;BME280;10983;51.982;9.226;2024-01-16T02:27:50;99349.44;;;1.51;100.00
21644;BME280;10983;51.982;9.226;2024-01-16T02:30:17;99349.22;;;1.53;100.00
21644;BME280;10983;51.982;9.226;2024-01-16T02:32:45;99342.16;;;1.53;100.00
21644;BME280;10983;51.982;9.226;2024-01-16T02:35:13;99342.16;;;1.53;100.00
21644;BME280;10983;51.982;9.226;2024-01-16T02:37:41;99343.00;;;1.54;100.00
21644;BME280;10983;51.982;9.226;2024-01-16T02:40:10;99357.28;;;1.51;100.00
21644;BME280;10983;51.982;9.226;2024-01-16T02:42:38;99348.22;;;1.54;100.00
21644;BME280;10983;51.982;9.226;2024-01-16T02:45:06;99348.00;;;1.49;100.00
21644;BME280;10983;51.982;9.226;2024-01-16T02:47:34;99344.13;;;1.45;100.00
21644;BME280;10983;51.982;9.226;2024-01-16T02:50:03;99346.56;;;1.46;100.00
21644;BME280;10983;51.982;9.226;2024-01-16T02:52:31;99357.88;;;1.47;100.00
21644;BME280;10983;51.982;9.226;2024-01-16T02:54:59;99343.75;;;1.48;100.00
21644;BME280;10983;51.982;9.226;2024-01-16T02:57:26;99341.94;;;1.48;100.00
21644;BME280;10983;51.982;9.226;2024-01-16T02:59:55;99356.66;;;1.49;100.00
21644;BME280;10983;51.982;9.226;2024-01-16T03:02:22;99352.44;;;1.48;100.00
21644;BME280;10983;51.982;9.226;2024-01-16T03:04:50;99359.91;;;1.51;100.00
21644;BME280;10983;51.982;9.226;2024-01-16T03:07:17;99355.25;;;1.53;100.00
21644;BME280;10983;51.982;9.226;2024-01-16T03:09:45;99360.94;;;1.57;100.00
21644;BME280;10983;51.982;9.226;2024-01-16T03:12:12;99361.56;;;1.59;100.00
21644;BME280;10983;51.982;9.226;2024-01-16T03:14:40;99369.78;;;1.56;100.00
21644;BME280;10983;51.982;9.226;2024-01-16T03:17:09;99373.44;;;1.55;100.00
21644;BME280;10983;51.982;9.226;2024-01-16T03:19:37;99370.81;;;1.55;100.00
21644;BME280;10983;51.982;9.226;2024-01-16T03:22:04;99363.56;;;1.57;100.00
21644;BME280;10983;51.982;9.226;2024-01-16T03:24:31;99367.50;;;1.46;100.00
21644;BME280;10983;51.982;9.226;2024-01-16T03:26:59;99382.81;;;1.43;100.00
21644;BME280;10983;51.982;9.226;2024-01-16T03:29:26;99372.56;;;1.48;100.00
21644;BME280;10983;51.982;9.226;2024-01-16T03:31:54;99359.91;;;1.51;100.00
21644;BME280;10983;51.982;9.226;2024-01-16T03:34:23;99356.66;;;1.49;100.00
21644;BME280;10983;51.982;9.226;2024-01-16T03:36:50;99368.34;;;1.53;100.00
21644;BME280;10983;51.982;9.226;2024-01-16T03:39:18;99378.66;;;1.55;100.00
21644;BME280;10983;51.982;9.226;2024-01-16T03:41:46;99375.22;;;1.54;100.00
21644;BME280;10983;51.982;9.226;2024-01-16T03:44:13;99375.22;;;1.54;100.00
21644;BME280;10983;51.982;9.226;2024-01-16T03:46:41;99375.81;;;1.50;100.00
21644;BME280;10983;51.982;9.226;2024-01-16T03:49:08;99372.34;;;1.49;100.00
21644;BME280;10983;51.982;9.226;2024-01-16T03:51:37;99379.03;;;1.52;100.00
21644;BME280;10983;51.982;9.226;2024-01-16T03:54:04;99379.84;;;1.52;100.00
21644;BME280;10983;51.982;9.226;2024-01-16T03:56:32;99395.38;;;1.54;100.00
21644;BME280;10983;51.982;9.226;2024-01-16T03:58:59;99387.72;;;1.52;100.00
21644;BME280;10983;51.982;9.226;2024-01-16T04:01:31;99393.94;;;1.51;100.00
21644;BME280;10983;51.982;9.226;2024-01-16T04:04:00;99388.91;;;1.50;100.00
21644;BME280;10983;51.982;9.226;2024-01-16T04:06:28;99386.84;;;1.45;100.00
21644;BME280;10983;51.982;9.226;2024-01-16T04:08:57;99388.03;;;1.43;100.00
21644;BME280;10983;51.982;9.226;2024-01-16T04:11:25;99391.84;;;1.40;100.00
21644;BME280;10983;51.982;9.226;2024-01-16T04:13:52;99396.63;;;1.37;100.00
21644;BME280;10983;51.982;9.226;2024-01-16T04:16:20;99392.22;;;1.37;100.00
21644;BME280;10983;51.982;9.226;2024-01-16T04:18:47;99404.50;;;1.37;100.00
21644;BME280;10983;51.982;9.226;2024-01-16T04:21:15;99384.13;;;1.32;100.00
21644;BME280;10983;51.982;9.226;2024-01-16T04:23:46;99390.59;;;1.36;100.00
21644;BME280;10983;51.982;9.226;2024-01-16T04:26:15;99398.47;;;1.36;100.00
21644;BME280;10983;51.982;9.226;2024-01-16T04:28:43;99404.25;;;1.32;100.00
21644;BME280;10983;51.982;9.226;2024-01-16T04:31:10;99403.25;;;1.33;100.00
21644;BME280;10983;51.982;9.226;2024-01-16T04:33:38;99406.84;;;1.32;100.00
21644;BME280;10983;51.982;9.226;2024-01-16T04:36:07;99402.19;;;1.27;100.00
21644;BME280;10983;51.982;9.226;2024-01-16T04:38:34;99403.19;;;1.26;100.00
21644;BME280;10983;51.982;9.226;2024-01-16T04:41:02;99403.63;;;1.30;100.00
21644;BME280;10983;51.982;9.226;2024-01-16T04:43:31;99405.69;;;1.34;100.00
21644;BME280;10983;51.982;9.226;2024-01-16T04:45:58;99401.63;;;1.32;100.00
21644;BME280;10983;51.982;9.226;2024-01-16T04:48:29;99402.44;;;1.32;100.00
21644;BME280;10983;51.982;9.226;2024-01-16T04:50:56;99410.50;;;1.31;100.00
21644;BME280;10983;51.982;9.226;2024-01-16T04:53:25;99397.75;;;1.28;100.00
21644;BME280;10983;51.982;9.226;2024-01-16T04:55:54;99409.44;;;1.25;100.00
21644;BME280;10983;51.982;9.226;2024-01-16T04:58:21;99402.19;;;1.27;100.00
21644;BME280;10983;51.982;9.226;2024-01-16T05:00:50;99403.63;;;1.30;100.00
21644;BME280;10983;51.982;9.226;2024-01-16T05:03:18;99406.25;;;1.30;100.00
21644;BME280;10983;51.982;9.226;2024-01-16T05:05:45;99404.25;;;1.32;100.00
21644;BME280;10983;51.982;9.226;2024-01-16T05:08:13;99407.06;;;1.30;100.00
21644;BME280;10983;51.982;9.226;2024-01-16T05:10:40;99404.44;;;1.30;100.00
21644;BME280;10983;51.982;9.226;2024-01-16T05:13:10;99400.38;;;1.28;100.00
21644;BME280;10983;51.982;9.226;2024-01-16T05:15:39;99397.34;;;1.24;100.00
21644;BME280;10983;51.982;9.226;2024-01-16T05:18:09;99396.16;;;1.27;100.00
21644;BME280;10983;51.982;9.226;2024-01-16T05:20:37;99403.00;;;1.28;100.00
21644;BME280;10983;51.982;9.226;2024-01-16T05:23:04;99395.59;;;1.31;100.00
21644;BME280;10983;51.982;9.226;2024-01-16T05:25:32;99397.41;;;1.31;100.00
21644;BME280;10983;51.982;9.226;2024-01-16T05:27:59;99391.16;;;1.32;100.00
21644;BME280;10983;51.982;9.226;2024-01-16T05:30:27;99390.59;;;1.36;100.00
21644;BME280;10983;51.982;9.226;2024-01-16T05:32:55;99393.41;;;1.35;100.00
21644;BME280;10983;51.982;9.226;2024-01-16T05:35:28;99392.41;;;1.36;100.00
21644;BME280;10983;51.982;9.226;2024-01-16T05:37:56;99388.72;;;1.30;100.00
21644;BME280;10983;51.982;9.226;2024-01-16T05:40:25;99396.09;;;1.20;100.00
21644;BME280;10983;51.982;9.226;2024-01-16T05:42:53;99394.47;;;1.19;100.00
21644;BME280;10983;51.982;9.226;2024-01-16T05:45:21;99390.47;;;1.23;100.00
21644;BME280;10983;51.982;9.226;2024-01-16T05:47:50;99398.16;;;1.25;100.00
21644;BME280;10983;51.982;9.226;2024-01-16T05:50:18;99403.38;;;1.25;100.00
21644;BME280;10983;51.982;9.226;2024-01-16T05:52:47;99402.00;;;1.29;100.00
21644;BME280;10983;51.982;9.226;2024-01-16T05:55:14;99400.22;;;1.29;100.00
21644;BME280;10983;51.982;9.226;2024-01-16T05:57:42;99403.44;;;1.31;100.00
21644;BME280;10983;51.982;9.226;2024-01-16T06:00:10;99401.03;;;1.30;100.00
21644;BME280;10983;51.982;9.226;2024-01-16T06:02:38;99399.38;;;1.29;100.00
21644;BME280;10983;51.982;9.226;2024-01-16T06:05:06;99400.56;;;1.26;100.00
21644;BME280;10983;51.982;9.226;2024-01-16T06:07:33;99404.22;;;1.25;100.00
21644;BME280;10983;51.982;9.226;2024-01-16T06:10:03;99406.44;;;1.28;100.00
21644;BME280;10983;51.982;9.226;2024-01-16T06:12:32;99403.38;;;1.25;100.00
21644;BME280;10983;51.982;9.226;2024-01-16T06:15:00;99416.72;;;1.30;100.00
21644;BME280;10983;51.982;9.226;2024-01-16T06:17:27;99409.47;;;1.32;100.00
21644;BME280;10983;51.982;9.226;2024-01-16T06:19:55;99400.81;;;1.31;100.00
21644;BME280;10983;51.982;9.226;2024-01-16T06:22:23;99420.13;;;1.30;100.00
21644;BME280;10983;51.982;9.226;2024-01-16T06:24:50;99406.44;;;1.28;100.00
21644;BME280;10983;51.982;9.226;2024-01-16T06:27:19;99413.47;;;1.28;100.00
21644;BME280;10983;51.982;9.226;2024-01-16T06:29:47;99412.06;;;1.25;100.00
21644;BME280;10983;51.982;9.226;2024-01-16T06:32:16;99414.56;;;1.33;100.00
21644;BME280;10983;51.982;9.226;2024-01-16T06:34:44;99412.53;;;1.35;100.00
21644;BME280;10983;51.982;9.226;2024-01-16T06:37:11;99418.41;;;1.37;100.00
21644;BME280;10983;51.982;9.226;2024-01-16T06:39:39;99411.34;;;1.38;100.00
21644;BME280;10983;51.982;9.226;2024-01-16T06:42:06;99418.56;;;1.36;100.00
21644;BME280;10983;51.982;9.226;2024-01-16T06:44:38;99424.00;;;1.34;100.00
21644;BME280;10983;51.982;9.226;2024-01-16T06:47:05;99427.44;;;1.35;100.00
21644;BME280;10983;51.982;9.226;2024-01-16T06:49:33;99421.84;;;1.38;100.00
21644;BME280;10983;51.982;9.226;2024-01-16T06:52:01;99428.63;;;1.32;100.00
21644;BME280;10983;51.982;9.226;2024-01-16T06:54:28;99436.75;;;1.37;100.00
21644;BME280;10983;51.982;9.226;2024-01-16T06:56:56;99430.44;;;1.32;100.00
21644;BME280;10983;51.982;9.226;2024-01-16T06:59:23;99425.81;;;1.34;100.00
21644;BME280;10983;51.982;9.226;2024-01-16T07:01:52;99422.75;;;1.30;100.00
21644;BME280;10983;51.982;9.226;2024-01-16T07:04:21;99425.03;;;1.33;100.00
21644;BME280;10983;51.982;9.226;2024-01-16T07:06:48;99420.13;;;1.30;100.00
21644;BME280;10983;51.982;9.226;2024-01-16T07:09:16;99421.56;;;1.33;100.00
21644;BME280;10983;51.982;9.226;2024-01-16T07:11:46;99417.53;;;1.30;100.00
21644;BME280;10983;51.982;9.226;2024-01-16T07:14:13;99410.81;;;1.21;100.00
21644;BME280;10983;51.982;9.226;2024-01-16T07:16:42;99423.00;;;1.14;100.00
21644;BME280;10983;51.982;9.226;2024-01-16T07:19:11;99421.16;;;1.09;100.00
21644;BME280;10983;51.982;9.226;2024-01-16T07:21:39;99421.94;;;1.09;100.00
21644;BME280;10983;51.982;9.226;2024-01-16T07:24:07;99415.13;;;1.08;100.00
21644;BME280;10983;51.982;9.226;2024-01-16T07:26:36;99422.31;;;1.06;100.00
21644;BME280;10983;51.982;9.226;2024-01-16T07:29:03;99421.81;;;1.17;100.00
21644;BME280;10983;51.982;9.226;2024-01-16T07:31:31;99419.28;;;1.23;100.00
21644;BME280;10983;51.982;9.226;2024-01-16T07:33:58;99425.56;;;1.29;100.00
21644;BME280;10983;51.982;9.226;2024-01-16T07:36:27;65387.91;;;-139.23;100.00
21644;BME280;10983;51.982;9.226;2024-01-16T07:38:55;65387.91;;;-139.23;100.00
21644;BME280;10983;51.982;9.226;2024-01-16T07:41:22;65387.91;;;-139.23;100.00
21644;BME280;10983;51.982;9.226;2024-01-16T07:43:50;65387.91;;;-139.23;100.00
21644;BME280;10983;51.982;9.226;2024-01-16T07:46:19;65387.91;;;-139.23;100.00
21644;BME280;10983;51.982;9.226;2024-01-16T07:48:46;65387.91;;;-139.23;100.00
21644;BME280;10983;51.982;9.226;2024-01-16T07:51:14;65387.91;;;-139.23;100.00
21644;BME280;10983;51.982;9.226;2024-01-16T07:53:43;65387.91;;;-139.23;100.00
21644;BME280;10983;51.982;9.226;2024-01-16T07:56:10;65387.91;;;-139.23;100.00
21644;BME280;10983;51.982;9.226;2024-01-16T07:58:38;65387.91;;;-139.23;100.00
21644;BME280;10983;51.982;9.226;2024-01-16T08:01:06;65387.91;;;-139.23;100.00
21644;BME280;10983;51.982;9.226;2024-01-16T08:03:34;65387.91;;;-139.23;100.00
21644;BME280;10983;51.982;9.226;2024-01-16T08:06:01;65387.91;;;-139.23;100.00
21644;BME280;10983;51.982;9.226;2024-01-16T08:08:29;65387.91;;;-139.23;100.00
21644;BME280;10983;51.982;9.226;2024-01-16T08:11:00;65387.91;;;-139.23;100.00
21644;BME280;10983;51.982;9.226;2024-01-16T08:13:29;65387.91;;;-139.23;100.00
21644;BME280;10983;51.982;9.226;2024-01-16T08:15:56;65387.91;;;-139.23;100.00
21644;BME280;10983;51.982;9.226;2024-01-16T08:18:24;65387.91;;;-139.23;100.00
21644;BME280;10983;51.982;9.226;2024-01-16T08:20:53;65387.91;;;-139.23;100.00
21644;BME280;10983;51.982;9.226;2024-01-16T08:23:21;65387.91;;;-139.23;100.00
21644;BME280;10983;51.982;9.226;2024-01-16T08:25:48;65387.91;;;-139.23;100.00
21644;BME280;10983;51.982;9.226;2024-01-16T08:28:19;65387.91;;;-139.23;100.00
21644;BME280;10983;51.982;9.226;2024-01-16T08:30:49;65387.91;;;-139.23;100.00
21644;BME280;10983;51.982;9.226;2024-01-16T08:33:16;65387.91;;;-139.23;100.00
21644;BME280;10983;51.982;9.226;2024-01-16T08:35:48;65387.91;;;-139.23;100.00
21644;BME280;10983;51.982;9.226;2024-01-16T08:38:16;65387.91;;;-139.23;100.00
21644;BME280;10983;51.982;9.226;2024-01-16T08:40:43;65387.91;;;-139.23;100.00
21644;BME280;10983;51.982;9.226;2024-01-16T08:43:11;65387.91;;;-139.23;100.00
21644;BME280;10983;51.982;9.226;2024-01-16T08:45:40;65387.91;;;-139.23;100.00
21644;BME280;10983;51.982;9.226;2024-01-16T08:48:07;65387.91;;;-139.23;100.00
21644;BME280;10983;51.982;9.226;2024-01-16T08:50:35;65387.91;;;-139.23;100.00
21644;BME280;10983;51.982;9.226;2024-01-16T08:53:03;65387.91;;;-139.23;100.00
21644;BME280;10983;51.982;9.226;2024-01-16T08:55:30;65387.91;;;-139.23;100.00
21644;BME280;10983;51.982;9.226;2024-01-16T08:57:59;65387.91;;;-139.23;100.00
21644;BME280;10983;51.982;9.226;2024-01-16T09:00:28;65387.91;;;-139.23;100.00
21644;BME280;10983;51.982;9.226;2024-01-16T09:02:57;65387.91;;;-139.23;100.00
21644;BME280;10983;51.982;9.226;2024-01-16T09:05:28;65387.91;;;-139.23;100.00
21644;BME280;10983;51.982;9.226;2024-01-16T09:07:56;65387.91;;;-139.23;100.00
21644;BME280;10983;51.982;9.226;2024-01-16T09:10:23;65387.91;;;-139.23;100.00
21644;BME280;10983;51.982;9.226;2024-01-16T09:12:51;65387.91;;;-139.23;100.00
21644;BME280;10983;51.982;9.226;2024-01-16T09:15:18;65387.91;;;-139.23;100.00
21644;BME280;10983;51.982;9.226;2024-01-16T09:17:46;65387.91;;;-139.23;100.00
21644;BME280;10983;51.982;9.226;2024-01-16T09:20:15;65387.91;;;-139.23;100.00
21644;BME280;10983;51.982;9.226;2024-01-16T09:22:43;65387.91;;;-139.23;100.00
21644;BME280;10983;51.982;9.226;2024-01-16T09:25:11;65387.91;;;-139.23;100.00
21644;BME280;10983;51.982;9.226;2024-01-16T09:27:38;65387.91;;;-139.23;100.00
21644;BME280;10983;51.982;9.226;2024-01-16T09:30:07;65387.91;;;-139.23;100.00
21644;BME280;10983;51.982;9.226;2024-01-16T09:32:35;65387.91;;;-139.23;100.00
21644;BME280;10983;51.982;9.226;2024-01-16T09:35:04;65387.91;;;-139.23;100.00
21644;BME280;10983;51.982;9.226;2024-01-16T09:37:35;65387.91;;;-139.23;100.00
21644;BME280;10983;51.982;9.226;2024-01-16T09:40:03;65387.91;;;-139.23;100.00
21644;BME280;10983;51.982;9.226;2024-01-16T09:42:31;65387.91;;;-139.23;100.00
21644;BME280;10983;51.982;9.226;2024-01-16T09:45:01;65387.91;;;-139.23;100.00
21644;BME280;10983;51.982;9.226;2024-01-16T09:47:30;65387.91;;;-139.23;100.00
21644;BME280;10983;51.982;9.226;2024-01-16T09:49:59;65387.91;;;-139.23;100.00
21644;BME280;10983;51.982;9.226;2024-01-16T09:52:28;65387.91;;;-139.23;100.00
21644;BME280;10983;51.982;9.226;2024-01-16T09:54:57;65387.91;;;-139.23;100.00
21644;BME280;10983;51.982;9.226;2024-01-16T09:57:26;65387.91;;;-139.23;100.00
21644;BME280;10983;51.982;9.226;2024-01-16T09:59:56;65387.91;;;-139.23;100.00
21644;BME280;10983;51.982;9.226;2024-01-16T10:02:25;65387.91;;;-139.23;100.00
21644;BME280;10983;51.982;9.226;2024-01-16T10:04:52;65387.91;;;-139.23;100.00
21644;BME280;10983;51.982;9.226;2024-01-16T10:07:20;65387.91;;;-139.23;100.00
21644;BME280;10983;51.982;9.226;2024-01-16T10:09:52;65387.91;;;-139.23;100.00
21644;BME280;10983;51.982;9.226;2024-01-16T10:12:21;65387.91;;;-139.23;100.00
21644;BME280;10983;51.982;9.226;2024-01-16T10:14:49;65387.91;;;-139.23;100.00
21644;BME280;10983;51.982;9.226;2024-01-16T10:17:17;65387.91;;;-139.23;100.00
21644;BME280;10983;51.982;9.226;2024-01-16T10:19:48;65387.91;;;-139.23;100.00
21644;BME280;10983;51.982;9.226;2024-01-16T10:22:20;65387.91;;;-139.23;100.00
21644;BME280;10983;51.982;9.226;2024-01-16T10:25:04;65387.91;;;-139.23;100.00
21644;BME280;10983;51.982;9.226;2024-01-16T10:27:33;65387.91;;;-139.23;100.00
21644;BME280;10983;51.982;9.226;2024-01-16T10:30:01;65387.91;;;-139.23;100.00
21644;BME280;10983;51.982;9.226;2024-01-16T10:32:34;65387.91;;;-139.23;100.00
21644;BME280;10983;51.982;9.226;2024-01-16T10:35:06;65387.91;;;-139.23;100.00
21644;BME280;10983;51.982;9.226;2024-01-16T10:37:42;65387.91;;;-139.23;100.00
21644;BME280;10983;51.982;9.226;2024-01-16T10:40:10;65387.91;;;-139.23;100.00
21644;BME280;10983;51.982;9.226;2024-01-16T10:42:39;65387.91;;;-139.23;100.00
21644;BME280;10983;51.982;9.226;2024-01-16T10:45:07;65387.91;;;-139.23;100.00
21644;BME280;10983;51.982;9.226;2024-01-16T10:47:34;65387.91;;;-139.23;100.00
21644;BME280;10983;51.982;9.226;2024-01-16T10:50:04;65387.91;;;-139.23;100.00
21644;BME280;10983;51.982;9.226;2024-01-16T10:52:35;65387.91;;;-139.23;100.00
21644;BME280;10983;51.982;9.226;2024-01-16T10:55:06;65387.91;;;-139.23;100.00
21644;BME280;10983;51.982;9.226;2024-01-16T10:57:40;65387.91;;;-139.23;100.00
21644;BME280;10983;51.982;9.226;2024-01-16T11:00:09;65387.91;;;-139.23;100.00
21644;BME280;10983;51.982;9.226;2024-01-16T11:02:43;65387.91;;;-139.23;100.00
21644;BME280;10983;51.982;9.226;2024-01-16T11:05:18;65387.91;;;-139.23;100.00
21644;BME280;10983;51.982;9.226;2024-01-16T11:07:46;65387.91;;;-139.23;100.00
21644;BME280;10983;51.982;9.226;2024-01-16T11:10:14;65387.91;;;-139.23;100.00
21644;BME280;10983;51.982;9.226;2024-01-16T11:12:43;65387.91;;;-139.23;100.00
21644;BME280;10983;51.982;9.226;2024-01-16T11:15:12;65387.91;;;-139.23;100.00
21644;BME280;10983;51.982;9.226;2024-01-16T11:17:44;65387.91;;;-139.23;100.00
21644;BME280;10983;51.982;9.226;2024-01-16T11:20:12;65387.91;;;-139.23;100.00
21644;BME280;10983;51.982;9.226;2024-01-16T11:23:01;65387.91;;;-139.23;100.00
21644;BME280;10983;51.982;9.226;2024-01-16T11:25:32;65387.91;;;-139.23;100.00
21644;BME280;10983;51.982;9.226;2024-01-16T11:28:12;65387.91;;;-139.23;100.00
21644;BME280;10983;51.982;9.226;2024-01-16T11:30:40;65387.91;;;-139.23;100.00
21644;BME280;10983;51.982;9.226;2024-01-16T11:33:42;65387.91;;;-139.23;100.00
21644;BME280;10983;51.982;9.226;2024-01-16T11:36:48;65387.91;;;-139.23;100.00
21644;BME280;10983;51.982;9.226;2024-01-16T11:39:19;65387.91;;;-139.23;100.00
21644;BME280;10983;51.982;9.226;2024-01-16T11:41:49;65387.91;;;-139.23;100.00
21644;BME280;10983;51.982;9.226;2024-01-16T11:44:42;65387.91;;;-139.23;100.00
21644;BME280;10983;51.982;9.226;2024-01-16T11:47:15;65387.91;;;-139.23;100.00
21644;BME280;10983;51.982;9.226;2024-01-16T11:49:46;65387.91;;;-139.23;100.00
21644;BME280;10983;51.982;9.226;2024-01-16T11:52:14;65387.91;;;-139.23;100.00
21644;BME280;10983;51.982;9.226;2024-01-16T11:54:42;65387.91;;;-139.23;100.00
21644;BME280;10983;51.982;9.226;2024-01-16T11:57:26;65387.91;;;-139.23;100.00
21644;BME280;10983;51.982;9.226;2024-01-16T12:00:01;65387.91;;;-139.23;100.00
21644;BME280;10983;51.982;9.226;2024-01-16T12:02:49;65387.91;;;-139.23;100.00
21644;BME280;10983;51.982;9.226;2024-01-16T12:05:19;65387.91;;;-139.23;100.00
21644;BME280;10983;51.982;9.226;2024-01-16T12:07:50;65387.91;;;-139.23;100.00
21644;BME280;10983;51.982;9.226;2024-01-16T12:10:19;65387.91;;;-139.23;100.00
21644;BME280;10983;51.982;9.226;2024-01-16T12:12:48;65387.91;;;-139.23;100.00
21644;BME280;10983;51.982;9.226;2024-01-16T12:15:18;65387.91;;;-139.23;100.00
21644;BME280;10983;51.982;9.226;2024-01-16T12:17:53;65387.91;;;-139.23;100.00
21644;BME280;10983;51.982;9.226;2024-01-16T12:20:23;65387.91;;;-139.23;100.00
21644;BME280;10983;51.982;9.226;2024-01-16T12:22:55;65387.91;;;-139.23;100.00
21644;BME280;10983;51.982;9.226;2024-01-16T12:25:23;65387.91;;;-139.23;100.00
21644;BME280;10983;51.982;9.226;2024-01-16T12:28:10;65387.91;;;-139.23;100.00
21644;BME280;10983;51.982;9.226;2024-01-16T12:30:48;65387.91;;;-139.23;100.00
21644;BME280;10983;51.982;9.226;2024-01-16T12:33:16;65387.91;;;-139.23;100.00
21644;BME280;10983;51.982;9.226;2024-01-16T12:35:48;65387.91;;;-139.23;100.00
21644;BME280;10983;51.982;9.226;2024-01-16T12:38:17;65387.91;;;-139.23;100.00
21644;BME280;10983;51.982;9.226;2024-01-16T12:40:47;65387.91;;;-139.23;100.00
21644;BME280;10983;51.982;9.226;2024-01-16T12:43:16;65387.91;;;-139.23;100.00
21644;BME280;10983;51.982;9.226;2024-01-16T12:45:46;65387.91;;;-139.23;100.00
21644;BME280;10983;51.982;9.226;2024-01-16T12:48:13;65387.91;;;-139.23;100.00
21644;BME280;10983;51.982;9.226;2024-01-16T12:50:41;65387.91;;;-139.23;100.00
21644;BME280;10983;51.982;9.226;2024-01-16T12:53:10;65387.91;;;-139.23;100.00
21644;BME280;10983;51.982;9.226;2024-01-16T12:55:39;65387.91;;;-139.23;100.00
21644;BME280;10983;51.982;9.226;2024-01-16T12:58:14;65387.91;;;-139.23;100.00